createdAt,value
2022-08-30T00:00:29.158Z,13.60
2022-08-30T00:05:33.156Z,13.60
2022-08-30T00:10:38.592Z,13.50
2022-08-30T00:15:42.242Z,13.50
2022-08-30T00:20:46.838Z,13.30
2022-08-30T00:25:51.266Z,13.30
2022-08-30T00:30:54.713Z,13.20
2022-08-30T00:35:58.141Z,13.20
2022-08-30T00:41:02.638Z,13.20
2022-08-30T00:46:08.413Z,13.20
2022-08-30T00:51:14.072Z,13.10
2022-08-30T00:56:18.887Z,13.10
2022-08-30T01:01:22.563Z,13.10
2022-08-30T01:06:26.157Z,13.00
2022-08-30T01:11:38.214Z,13.00
2022-08-30T01:16:43.825Z,13.00
2022-08-30T01:21:49.837Z,13.00
2022-08-30T01:26:54.918Z,13.00
2022-08-30T01:31:58.034Z,13.00
2022-08-30T01:37:02.209Z,13.00
2022-08-30T01:42:06.922Z,13.00
2022-08-30T01:47:10.675Z,13.00
2022-08-30T01:52:15.280Z,13.00
2022-08-30T01:57:22.933Z,13.00
2022-08-30T02:02:29.258Z,13.10
2022-08-30T02:07:32.485Z,13.00
2022-08-30T02:12:37.640Z,13.00
2022-08-30T02:17:41.693Z,12.90
2022-08-30T02:22:49.224Z,13.00
2022-08-30T02:27:54.011Z,13.00
2022-08-30T02:32:57.402Z,13.00
2022-08-30T02:38:00.492Z,13.00
2022-08-30T02:43:05.272Z,13.00
2022-08-30T02:48:08.362Z,12.90
2022-08-30T02:53:11.888Z,13.00
2022-08-30T02:58:20.598Z,12.90
2022-08-30T03:03:23.707Z,12.80
2022-08-30T03:08:26.963Z,12.70
2022-08-30T03:13:31.725Z,12.60
2022-08-30T03:18:34.984Z,12.40
2022-08-30T03:23:38.104Z,12.40
2022-08-30T03:28:43.632Z,12.30
2022-08-30T03:33:46.998Z,12.40
2022-08-30T03:38:50.084Z,12.30
2022-08-30T03:43:59.928Z,12.30
2022-08-30T03:49:03.577Z,12.30
2022-08-30T03:54:07.131Z,12.30
2022-08-30T03:59:11.690Z,12.20
2022-08-30T04:04:20.058Z,12.30
2022-08-30T04:09:24.848Z,12.20
2022-08-30T04:14:29.618Z,12.20
2022-08-30T04:19:32.745Z,12.10
2022-08-30T04:24:35.959Z,12.10
2022-08-30T04:29:40.984Z,12.00
2022-08-30T04:34:44.108Z,12.10
2022-08-30T04:39:48.816Z,12.10
2022-08-30T04:44:53.242Z,12.30
2022-08-30T04:49:56.567Z,12.40
2022-08-30T04:55:00.189Z,12.60
2022-08-30T05:00:07.609Z,12.80
2022-08-30T05:05:29.450Z,13.10
2022-08-30T05:10:32.646Z,13.30
2022-08-30T05:15:37.937Z,13.50
2022-08-30T05:20:41.961Z,13.60
2022-08-30T05:25:46.108Z,13.90
2022-08-30T05:30:50.494Z,14.10
2022-08-30T05:35:53.676Z,14.40
2022-08-30T05:40:56.797Z,14.60
2022-08-30T05:46:03.174Z,14.80
2022-08-30T05:51:08.775Z,15.00
2022-08-30T05:56:14.402Z,15.10
2022-08-30T06:01:24.941Z,15.30
2022-08-30T06:06:29.476Z,15.50
2022-08-30T06:11:35.927Z,15.70
2022-08-30T06:16:45.883Z,16.00
2022-08-30T06:21:51.281Z,16.10
2022-08-30T06:26:54.706Z,16.30
2022-08-30T06:31:59.294Z,16.50
2022-08-30T06:37:02.689Z,16.80
2022-08-30T06:42:06.625Z,17.10
2022-08-30T06:47:11.539Z,17.30
2022-08-30T06:52:15.297Z,17.50
2022-08-30T06:57:18.887Z,17.70
2022-08-30T07:02:24.185Z,17.90
2022-08-30T07:07:28.111Z,18.00
2022-08-30T07:12:33.172Z,17.90
2022-08-30T07:17:56.428Z,17.60
2022-08-30T07:22:59.841Z,17.90
2022-08-30T07:28:04.519Z,17.90
2022-08-30T07:33:09.692Z,17.90
2022-08-30T07:38:14.466Z,17.80
2022-08-30T07:43:18.187Z,17.80
2022-08-30T07:48:23.089Z,17.80
2022-08-30T07:53:26.560Z,17.60
2022-08-30T07:58:29.955Z,17.90
2022-08-30T08:03:35.245Z,18.00
2022-08-30T08:08:39.929Z,18.00
2022-08-30T08:13:53.143Z,17.80
2022-08-30T08:18:59.282Z,17.80
2022-08-30T08:24:03.550Z,17.40
2022-08-30T08:29:08.766Z,17.30
2022-08-30T08:34:14.222Z,17.10
2022-08-30T08:39:17.954Z,17.20
2022-08-30T08:44:34.406Z,17.40
2022-08-30T08:49:42.365Z,17.40
2022-08-30T08:54:52.340Z,17.60
2022-08-30T08:59:55.884Z,18.00
2022-08-30T09:05:02.631Z,18.60
2022-08-30T09:10:07.234Z,19.50
2022-08-30T09:15:16.920Z,19.40
2022-08-30T09:20:32.308Z,19.20
2022-08-30T09:25:41.223Z,18.90
2022-08-30T09:31:00.591Z,19.10
2022-08-30T09:36:19.959Z,19.10
2022-08-30T09:41:30.168Z,19.10
2022-08-30T09:46:34.328Z,19.20
2022-08-30T09:51:47.189Z,19.50
2022-08-30T09:57:01.439Z,19.10
2022-08-30T10:02:15.922Z,19.00
2022-08-30T10:07:28.998Z,19.20
2022-08-30T10:12:40.406Z,19.70
2022-08-30T10:17:51.534Z,20.10
2022-08-30T10:23:04.203Z,20.60
2022-08-30T10:28:14.687Z,20.70
2022-08-30T10:33:22.804Z,21.00
2022-08-30T10:38:35.386Z,20.80
2022-08-30T10:43:50.980Z,20.90
2022-08-30T10:48:56.493Z,21.60
2022-08-30T10:54:04.071Z,22.00
2022-08-30T10:59:07.696Z,22.30
2022-08-30T11:04:47.096Z,22.90
2022-08-30T11:10:08.889Z,22.90
2022-08-30T11:15:16.764Z,23.40
2022-08-30T11:20:29.672Z,24.00
2022-08-30T11:25:57.711Z,24.20
2022-08-30T11:31:06.834Z,24.00
2022-08-30T11:36:12.447Z,24.10
2022-08-30T11:41:32.333Z,23.90
2022-08-30T11:46:39.764Z,23.70
2022-08-30T11:57:37.929Z,23.80
2022-08-30T12:02:48.865Z,24.90
2022-08-30T12:07:58.552Z,24.30
2022-08-30T12:13:03.815Z,24.90
2022-08-30T12:18:28.696Z,24.10
2022-08-30T12:23:44.518Z,26.10
2022-08-30T12:28:52.519Z,27.30
2022-08-30T12:34:01.848Z,26.00
2022-08-30T12:39:11.872Z,26.10
2022-08-30T12:44:21.032Z,26.30
2022-08-30T12:49:27.207Z,26.00
2022-08-30T12:54:31.124Z,26.90
2022-08-30T12:59:54.186Z,26.50
2022-08-30T13:05:34.306Z,27.40
2022-08-30T13:10:48.354Z,27.20
2022-08-30T13:15:53.764Z,26.60
2022-08-30T13:21:11.541Z,26.10
2022-08-30T13:26:20.499Z,25.40
2022-08-30T13:31:30.461Z,25.70
2022-08-30T13:36:37.580Z,24.70
2022-08-30T13:41:40.932Z,23.50
2022-08-30T13:46:53.918Z,23.00
2022-08-30T13:52:19.338Z,22.50
2022-08-30T14:02:54.484Z,22.40
2022-08-30T14:07:59.091Z,22.40
2022-08-30T14:13:08.807Z,22.20
2022-08-30T14:18:17.792Z,22.30
2022-08-30T14:23:22.259Z,22.30
2022-08-30T14:28:29.862Z,21.90
2022-08-30T14:33:36.024Z,21.50
2022-08-30T14:38:39.695Z,21.90
2022-08-30T14:43:46.182Z,22.20
2022-08-30T14:48:51.092Z,22.10
2022-08-30T14:53:54.869Z,22.80
2022-08-30T14:59:02.620Z,23.20
2022-08-30T15:04:10.387Z,22.80
2022-08-30T15:09:19.161Z,22.60
2022-08-30T15:14:28.080Z,22.60
2022-08-30T15:19:33.325Z,22.60
2022-08-30T15:24:37.467Z,22.00
2022-08-30T15:29:41.122Z,21.80
2022-08-30T15:34:46.026Z,21.90
2022-08-30T15:39:59.368Z,21.80
2022-08-30T15:45:03.724Z,21.50
2022-08-30T15:50:09.612Z,21.50
2022-08-30T15:55:13.046Z,21.70
2022-08-30T16:00:17.224Z,21.80
2022-08-30T16:05:23.773Z,21.60
2022-08-30T16:10:29.592Z,22.00
2022-08-30T16:15:34.081Z,21.90
2022-08-30T16:20:40.025Z,21.70
2022-08-30T16:25:43.851Z,21.30
2022-08-30T16:30:47.385Z,21.00
2022-08-30T16:35:56.541Z,20.80
2022-08-30T16:41:04.614Z,20.80
2022-08-30T16:46:10.938Z,20.70
2022-08-30T16:51:17.553Z,20.70
2022-08-30T16:56:24.435Z,20.30
2022-08-30T17:01:31.848Z,20.00
2022-08-30T17:06:38.128Z,19.80
2022-08-30T17:11:41.693Z,19.50
2022-08-30T17:16:45.295Z,19.40
2022-08-30T17:21:50.944Z,19.10
2022-08-30T17:26:54.716Z,19.00
2022-08-30T17:31:58.498Z,19.00
2022-08-30T17:37:04.371Z,18.90
2022-08-30T17:42:08.334Z,18.50
2022-08-30T17:47:12.058Z,18.40
2022-08-30T17:52:16.854Z,18.10
2022-08-30T17:57:20.757Z,17.80
2022-08-30T18:02:27.885Z,17.60
2022-08-30T18:07:35.648Z,17.30
2022-08-30T18:12:39.498Z,17.10
2022-08-30T18:17:49.022Z,16.90
2022-08-30T18:22:55.692Z,16.70
2022-08-30T18:27:59.380Z,16.60
2022-08-30T18:33:02.954Z,16.40
2022-08-30T18:38:11.331Z,16.20
2022-08-30T18:43:15.805Z,16.00
2022-08-30T18:48:20.315Z,15.90
2022-08-30T18:53:29.138Z,16.00
2022-08-30T18:58:34.926Z,15.80
2022-08-30T19:03:38.566Z,15.60
2022-08-30T19:08:45.867Z,15.40
2022-08-30T19:13:49.320Z,15.20
2022-08-30T19:18:54.717Z,15.20
2022-08-30T19:23:59.592Z,15.00
2022-08-30T19:29:03.149Z,14.90
2022-08-30T19:34:06.905Z,14.80
2022-08-30T19:39:11.792Z,14.70
2022-08-30T19:44:15.829Z,14.70
2022-08-30T19:49:19.342Z,14.50
2022-08-30T20:46:50.812Z,13.90
2022-08-30T20:51:55.340Z,13.80
2022-08-30T20:56:58.668Z,13.70
2022-08-30T21:02:05.450Z,13.70
2022-08-30T21:07:08.992Z,13.80
2022-08-30T21:12:12.319Z,14.00
2022-08-30T21:17:17.969Z,14.10
2022-08-30T21:22:21.557Z,14.20
2022-08-30T21:27:25.059Z,14.40
2022-08-30T21:32:29.895Z,14.60
2022-08-30T21:37:36.133Z,14.80
2022-08-30T21:42:40.147Z,14.80
2022-08-30T22:03:40.241Z,15.00
2022-08-30T22:08:47.648Z,14.70
